createdAt,value
2018-03-08T00:00:44.420Z,7.10
2018-03-08T00:03:12.744Z,7.20
2018-03-08T00:05:40.331Z,7.10
2018-03-08T00:08:07.897Z,7.10
2018-03-08T00:10:36.195Z,7.10
2018-03-08T00:13:03.761Z,7.00
2018-03-08T00:15:31.340Z,7.00
2018-03-08T00:17:58.901Z,7.10
2018-03-08T00:20:26.487Z,7.10
2018-03-08T00:22:54.054Z,7.10
2018-03-08T00:25:21.643Z,7.10
2018-03-08T00:27:49.208Z,7.30
2018-03-08T00:30:17.557Z,7.20
2018-03-08T00:32:45.113Z,7.10
2018-03-08T00:35:12.696Z,7.10
2018-03-08T00:37:40.260Z,7.10
2018-03-08T00:40:08.617Z,7.20
2018-03-08T00:42:36.177Z,7.10
2018-03-08T00:45:03.760Z,7.10
2018-03-08T00:47:31.326Z,7.20
2018-03-08T00:49:59.691Z,7.20
2018-03-08T00:52:28.018Z,7.10
2018-03-08T00:54:55.597Z,7.10
2018-03-08T00:57:23.206Z,7.20
2018-03-08T00:59:50.794Z,7.20
2018-03-08T01:02:18.354Z,7.20
2018-03-08T01:04:45.937Z,7.30
2018-03-08T01:07:13.502Z,7.30
2018-03-08T01:09:41.089Z,7.30
2018-03-08T01:12:09.417Z,7.30
2018-03-08T01:14:37.801Z,7.30
2018-03-08T01:17:06.130Z,7.30
2018-03-08T01:19:33.711Z,7.30
2018-03-08T01:22:01.273Z,7.20
2018-03-08T01:24:28.853Z,7.30
2018-03-08T01:26:56.432Z,7.30
2018-03-08T01:29:24.002Z,7.10
2018-03-08T01:31:51.591Z,7.20
2018-03-08T01:34:19.354Z,7.20
2018-03-08T01:36:46.933Z,7.30
2018-03-08T01:39:14.489Z,7.10
2018-03-08T01:41:42.071Z,7.20
2018-03-08T01:44:09.644Z,7.10
2018-03-08T01:46:37.234Z,7.30
2018-03-08T01:49:05.578Z,7.20
2018-03-08T01:51:33.169Z,7.10
2018-03-08T01:54:01.489Z,7.20
2018-03-08T01:56:29.079Z,7.20
2018-03-08T01:58:56.648Z,7.20
2018-03-08T02:01:24.270Z,7.20
2018-03-08T02:03:51.830Z,7.30
2018-03-08T02:06:19.408Z,7.30
2018-03-08T02:08:46.970Z,7.30
2018-03-08T02:11:14.553Z,7.30
2018-03-08T02:13:42.125Z,7.30
2018-03-08T02:16:10.468Z,7.30
2018-03-08T02:18:38.029Z,7.30
2018-03-08T02:21:05.618Z,7.30
2018-03-08T02:23:33.945Z,7.30
2018-03-08T02:26:01.530Z,7.20
2018-03-08T02:28:29.088Z,7.30
2018-03-08T02:30:56.674Z,7.30
2018-03-08T02:33:24.247Z,7.20
2018-03-08T02:35:51.851Z,7.40
2018-03-08T02:38:19.428Z,7.40
2018-03-08T02:40:47.784Z,7.30
2018-03-08T02:43:15.366Z,7.30
2018-03-08T02:45:43.712Z,7.20
2018-03-08T02:48:11.305Z,7.20
2018-03-08T02:50:39.002Z,7.20
2018-03-08T02:53:06.590Z,7.30
2018-03-08T02:55:34.164Z,7.30
2018-03-08T02:58:01.816Z,7.20
2018-03-08T03:00:29.387Z,7.20
2018-03-08T03:02:56.974Z,7.30
2018-03-08T03:05:25.297Z,7.30
2018-03-08T03:07:52.880Z,7.30
2018-03-08T03:10:20.454Z,7.30
2018-03-08T03:12:48.818Z,7.30
2018-03-08T03:15:16.384Z,7.30
2018-03-08T03:17:43.972Z,7.30
2018-03-08T03:20:12.297Z,7.30
2018-03-08T03:22:39.881Z,7.30
2018-03-08T03:25:07.454Z,7.40
2018-03-08T03:27:35.037Z,7.30
2018-03-08T03:30:02.604Z,7.20
2018-03-08T03:32:30.189Z,7.30
2018-03-08T03:34:57.756Z,7.40
2018-03-08T03:37:25.350Z,7.20
2018-03-08T03:39:53.698Z,7.10
2018-03-08T03:42:21.313Z,7.10
2018-03-08T03:44:48.888Z,7.00
2018-03-08T03:47:16.450Z,7.00
2018-03-08T03:49:44.041Z,6.80
2018-03-08T03:52:11.607Z,6.90
2018-03-08T03:54:39.189Z,6.70
2018-03-08T03:57:07.521Z,6.50
2018-03-08T03:59:35.121Z,6.50
2018-03-08T04:02:03.453Z,6.70
2018-03-08T04:04:31.046Z,6.60
2018-03-08T04:06:58.641Z,6.50
2018-03-08T04:09:26.230Z,6.40
2018-03-08T04:11:54.561Z,6.30
2018-03-08T04:14:22.153Z,6.30
2018-03-08T04:16:49.726Z,6.40
2018-03-08T04:19:17.308Z,6.40
2018-03-08T04:21:44.868Z,6.30
2018-03-08T04:24:12.454Z,6.20
2018-03-08T04:26:40.018Z,5.90
2018-03-08T04:29:07.602Z,5.90
2018-03-08T04:31:35.169Z,5.90
2018-03-08T04:34:02.799Z,5.60
2018-03-08T04:36:30.370Z,5.60
2018-03-08T04:38:57.977Z,5.50
2018-03-08T04:41:25.549Z,5.50
2018-03-08T04:43:53.140Z,5.50
2018-03-08T04:46:20.715Z,5.20
2018-03-08T04:48:48.297Z,5.20
2018-03-08T04:51:16.625Z,5.20
2018-03-08T04:53:44.186Z,5.20
2018-03-08T04:56:11.965Z,5.00
2018-03-08T04:58:39.527Z,4.90
2018-03-08T05:01:07.109Z,4.90
2018-03-08T05:03:35.442Z,4.90
2018-03-08T05:06:03.034Z,4.90
2018-03-08T05:08:30.591Z,4.90
2018-03-08T05:10:58.170Z,4.90
2018-03-08T05:13:26.508Z,5.10
2018-03-08T05:15:54.084Z,5.10
2018-03-08T05:18:21.645Z,5.00
2018-03-08T05:20:49.323Z,5.00
2018-03-08T05:23:16.913Z,5.10
2018-03-08T05:25:44.501Z,5.20
2018-03-08T05:28:12.061Z,5.10
2018-03-08T05:30:39.654Z,5.00
2018-03-08T05:33:07.228Z,4.80
2018-03-08T05:35:34.809Z,4.90
2018-03-08T05:38:02.383Z,5.20
2018-03-08T05:40:31.414Z,5.00
2018-03-08T05:42:58.984Z,5.00
2018-03-08T05:45:26.565Z,5.00
2018-03-08T05:47:54.129Z,4.90
2018-03-08T05:50:21.721Z,5.00
2018-03-08T05:52:49.284Z,5.00
2018-03-08T05:55:16.868Z,4.90
2018-03-08T05:57:44.424Z,5.00
2018-03-08T06:00:12.016Z,5.10
2018-03-08T06:02:39.581Z,5.20
2018-03-08T06:05:07.189Z,5.20
2018-03-08T06:07:34.768Z,5.20
2018-03-08T06:10:02.330Z,5.20
2018-03-08T06:12:29.917Z,5.20
2018-03-08T06:14:57.488Z,5.40
2018-03-08T06:17:25.069Z,5.40
2018-03-08T06:19:52.628Z,5.40
2018-03-08T06:22:20.213Z,5.40
2018-03-08T06:24:48.542Z,5.40
2018-03-08T06:27:16.132Z,5.40
2018-03-08T06:29:43.693Z,5.40
2018-03-08T06:32:11.285Z,5.40
2018-03-08T06:34:41.202Z,5.40
2018-03-08T06:37:08.922Z,5.40
2018-03-08T06:39:36.481Z,5.40
2018-03-08T06:42:04.108Z,5.50
2018-03-08T06:44:32.362Z,5.60
2018-03-08T06:46:59.955Z,5.80
2018-03-08T06:49:28.272Z,5.90
2018-03-08T06:51:55.849Z,5.80
2018-03-08T06:54:23.413Z,5.80
2018-03-08T06:56:50.997Z,5.80
2018-03-08T06:59:18.582Z,5.90
2018-03-08T07:01:46.171Z,6.00
2018-03-08T07:04:13.729Z,6.10
2018-03-08T07:06:41.314Z,6.10
2018-03-08T07:09:08.886Z,6.10
2018-03-08T07:11:36.470Z,6.30
2018-03-08T07:14:04.802Z,6.40
2018-03-08T07:16:32.392Z,6.40
2018-03-08T07:19:00.719Z,6.60
2018-03-08T07:21:28.463Z,6.60
2018-03-08T07:23:56.050Z,6.70
2018-03-08T07:26:23.612Z,6.80
2018-03-08T07:28:51.191Z,7.00
2018-03-08T07:31:18.753Z,7.60
2018-03-08T07:33:46.338Z,8.40
2018-03-08T07:36:14.675Z,9.70
2018-03-08T07:38:42.265Z,9.60
2018-03-08T07:41:10.599Z,11.00
2018-03-08T07:43:38.186Z,11.00
2018-03-08T07:46:06.329Z,11.60
2018-03-08T07:48:33.920Z,12.30
2018-03-08T07:51:01.488Z,13.00
2018-03-08T07:53:29.081Z,13.30
2018-03-08T07:55:56.643Z,13.80
2018-03-08T07:58:24.234Z,14.10
2018-03-08T08:00:51.809Z,14.30
2018-03-08T08:03:19.401Z,14.80
2018-03-08T08:05:58.653Z,15.00
2018-03-08T08:08:37.998Z,15.40
2018-03-08T08:11:05.579Z,15.80
2018-03-08T08:13:33.181Z,16.30
2018-03-08T08:16:00.741Z,16.60
2018-03-08T08:18:28.335Z,16.80
2018-03-08T08:20:55.929Z,17.30
2018-03-08T08:23:23.526Z,17.70
2018-03-08T08:25:51.088Z,17.80
2018-03-08T08:28:18.702Z,18.30
2018-03-08T08:30:46.272Z,18.50
2018-03-08T08:33:13.865Z,18.50
2018-03-08T08:35:41.429Z,18.10
2018-03-08T08:38:09.025Z,17.80
2018-03-08T08:40:36.590Z,17.90
2018-03-08T08:43:04.354Z,17.80
2018-03-08T08:45:31.925Z,17.70
2018-03-08T08:47:59.497Z,17.30
2018-03-08T08:50:27.093Z,17.00
2018-03-08T08:52:54.669Z,16.80
2018-03-08T08:55:22.276Z,16.70
2018-03-08T08:57:50.610Z,16.30
2018-03-08T09:00:18.237Z,16.20
2018-03-08T09:02:45.802Z,16.00
2018-03-08T09:05:13.398Z,16.00
2018-03-08T09:07:40.964Z,16.00
2018-03-08T09:10:08.566Z,16.00
2018-03-08T09:12:36.906Z,15.70
2018-03-08T09:15:04.494Z,15.70
2018-03-08T09:17:32.059Z,15.60
2018-03-08T09:19:59.654Z,15.50
2018-03-08T09:22:27.218Z,15.40
2018-03-08T09:24:54.815Z,15.50
2018-03-08T09:27:22.386Z,15.70
2018-03-08T09:29:49.974Z,15.80
2018-03-08T09:32:17.537Z,15.80
2018-03-08T09:34:45.130Z,15.80
2018-03-08T09:37:14.347Z,15.80
2018-03-08T09:39:41.942Z,15.80
2018-03-08T09:42:09.511Z,16.10
2018-03-08T09:44:37.101Z,15.90
2018-03-08T09:47:04.681Z,16.00
2018-03-08T09:49:32.269Z,16.50
2018-03-08T09:51:59.838Z,16.80
2018-03-08T09:54:27.408Z,17.20
2018-03-08T09:56:55.006Z,17.70
2018-03-08T09:59:22.568Z,18.00
2018-03-08T10:01:50.167Z,18.30
2018-03-08T10:04:17.742Z,18.90
2018-03-08T10:06:45.333Z,19.10
2018-03-08T10:09:12.896Z,19.40
2018-03-08T10:11:41.245Z,20.10
2018-03-08T10:14:09.748Z,20.00
2018-03-08T10:16:37.333Z,20.70
2018-03-08T10:19:05.061Z,21.20
2018-03-08T10:21:44.964Z,21.70
2018-03-08T10:24:00.272Z,22.10
2018-03-08T10:26:27.866Z,21.90
2018-03-08T10:28:55.433Z,22.00
2018-03-08T10:31:23.025Z,21.80
2018-03-08T10:33:51.370Z,21.30
2018-03-08T10:36:18.961Z,21.30
2018-03-08T10:38:46.529Z,21.80
2018-03-08T10:41:14.175Z,21.70
2018-03-08T10:43:41.704Z,22.00
2018-03-08T10:46:09.300Z,22.20
2018-03-08T10:48:36.874Z,22.70
2018-03-08T10:51:04.584Z,22.90
2018-03-08T10:53:32.173Z,23.20
2018-03-08T10:56:00.529Z,23.00
2018-03-08T10:58:28.103Z,23.00
2018-03-08T11:00:55.690Z,23.20
2018-03-08T11:03:28.955Z,23.60
2018-03-08T11:05:56.567Z,23.50
2018-03-08T11:08:24.129Z,23.70
2018-03-08T11:10:51.727Z,23.40
2018-03-08T11:13:20.465Z,23.30
2018-03-08T11:15:48.923Z,23.20
2018-03-08T11:18:16.522Z,23.20
2018-03-08T11:20:44.332Z,22.30
2018-03-08T11:23:11.992Z,22.00
2018-03-08T11:25:39.556Z,21.50
2018-03-08T11:28:08.923Z,20.60
2018-03-08T11:30:36.591Z,20.60
2018-03-08T11:33:04.183Z,20.40
2018-03-08T11:35:31.750Z,20.30
2018-03-08T11:37:59.348Z,19.80
2018-03-08T11:40:26.912Z,19.20
2018-03-08T11:42:55.354Z,18.80
2018-03-08T11:45:22.082Z,18.70
2018-03-08T11:47:49.668Z,18.70
2018-03-08T11:50:17.246Z,18.50
2018-03-08T11:52:45.747Z,18.10
2018-03-08T11:55:16.622Z,18.00
2018-03-08T11:57:45.535Z,17.90
2018-03-08T12:00:15.460Z,17.90
2018-03-08T12:02:46.120Z,17.60
2018-03-08T12:05:14.670Z,17.30
2018-03-08T12:07:44.413Z,17.00
2018-03-08T12:10:12.345Z,17.00
2018-03-08T12:12:40.288Z,17.10
2018-03-08T12:15:09.774Z,17.10
2018-03-08T12:17:37.629Z,16.90
2018-03-08T12:20:05.671Z,17.00
2018-03-08T12:22:33.995Z,16.90
2018-03-08T12:25:02.807Z,16.70
2018-03-08T12:27:30.859Z,16.60
2018-03-08T12:29:58.877Z,16.60
2018-03-08T12:32:26.818Z,16.50
2018-03-08T12:34:55.548Z,16.40
2018-03-08T12:37:23.781Z,16.10
2018-03-08T12:39:51.639Z,16.10
2018-03-08T12:42:19.642Z,16.10
2018-03-08T12:44:47.258Z,16.00
2018-03-08T12:47:14.845Z,15.90
2018-03-08T12:49:43.385Z,15.70
2018-03-08T12:52:10.952Z,15.60
2018-03-08T12:54:38.549Z,15.60
2018-03-08T12:57:06.884Z,15.40
2018-03-08T12:59:34.469Z,15.40
2018-03-08T13:02:02.050Z,15.40
2018-03-08T13:04:29.648Z,15.40
2018-03-08T13:06:57.218Z,15.40
2018-03-08T13:09:24.800Z,15.30
2018-03-08T13:11:52.361Z,15.60
2018-03-08T13:14:19.945Z,15.40
2018-03-08T13:16:47.510Z,15.30
2018-03-08T13:19:15.097Z,15.40
2018-03-08T13:21:43.429Z,15.30
2018-03-08T13:24:11.013Z,15.30
2018-03-08T13:26:38.585Z,15.50
2018-03-08T13:29:06.229Z,15.60
2018-03-08T13:31:33.838Z,15.70
2018-03-08T13:34:01.454Z,15.70
2018-03-08T13:36:29.028Z,15.90
2018-03-08T13:38:57.366Z,16.10
2018-03-08T13:41:24.957Z,16.00
2018-03-08T13:43:53.389Z,16.00
2018-03-08T13:46:20.975Z,16.20
2018-03-08T13:48:48.551Z,16.10
2018-03-08T13:51:16.142Z,16.20
2018-03-08T13:53:43.705Z,16.10
2018-03-08T13:56:11.349Z,16.10
2018-03-08T13:58:38.918Z,16.00
2018-03-08T14:01:07.445Z,15.90
2018-03-08T14:03:35.349Z,15.80
2018-03-08T14:06:03.701Z,15.90
2018-03-08T14:08:31.350Z,15.90
2018-03-08T14:10:58.921Z,15.80
2018-03-08T14:13:26.564Z,15.70
2018-03-08T14:15:54.166Z,15.70
2018-03-08T14:18:22.500Z,15.60
2018-03-08T14:20:51.113Z,15.60
2018-03-08T14:23:18.764Z,15.50
2018-03-08T14:25:46.359Z,15.40
2018-03-08T14:28:15.766Z,15.50
2018-03-08T14:30:43.358Z,15.50
2018-03-08T14:33:11.265Z,15.50
2018-03-08T14:35:39.286Z,15.40
2018-03-08T14:38:06.894Z,15.20
2018-03-08T14:40:34.487Z,15.20
2018-03-08T14:43:02.162Z,15.20
2018-03-08T14:45:31.248Z,15.10
2018-03-08T14:47:58.846Z,14.90
2018-03-08T14:50:26.437Z,14.80
2018-03-08T14:52:54.009Z,14.80
2018-03-08T14:55:21.605Z,14.70
2018-03-08T14:57:49.204Z,14.50
2018-03-08T15:00:16.780Z,14.50
2018-03-08T15:02:45.138Z,14.40
2018-03-08T15:05:12.713Z,14.40
2018-03-08T15:07:40.296Z,14.30
2018-03-08T15:10:07.869Z,14.40
2018-03-08T15:12:35.523Z,14.30
2018-03-08T15:15:03.097Z,14.20
2018-03-08T15:17:30.690Z,14.10
2018-03-08T15:19:58.266Z,14.00
2018-03-08T15:22:25.859Z,14.00
2018-03-08T15:24:53.434Z,14.10
2018-03-08T15:27:21.022Z,14.00
2018-03-08T15:29:48.634Z,14.00
2018-03-08T15:32:16.230Z,13.90
2018-03-08T15:34:43.797Z,13.90
2018-03-08T15:37:11.385Z,13.70
2018-03-08T15:39:38.996Z,13.60
2018-03-08T15:42:06.586Z,13.70
2018-03-08T15:44:34.165Z,13.70
2018-03-08T15:47:02.521Z,13.60
2018-03-08T15:49:30.095Z,13.60
2018-03-08T15:51:58.456Z,13.40
2018-03-08T15:54:26.034Z,13.40
2018-03-08T15:56:53.631Z,13.50
2018-03-08T15:59:21.193Z,13.40
2018-03-08T16:01:48.766Z,13.40
2018-03-08T16:04:19.079Z,13.40
2018-03-08T16:10:29.010Z,13.20
2018-03-08T16:12:56.594Z,13.10
2018-03-08T16:15:24.275Z,13.00
2018-03-08T16:17:51.872Z,13.00
2018-03-08T16:20:19.622Z,12.90
2018-03-08T16:22:47.199Z,13.00
2018-03-08T16:25:14.785Z,12.90
2018-03-08T16:27:43.122Z,12.80
2018-03-08T16:30:10.715Z,12.80
2018-03-08T16:32:38.283Z,12.90
2018-03-08T16:35:06.127Z,12.80
2018-03-08T16:37:33.704Z,12.70
2018-03-08T16:40:02.667Z,12.70
2018-03-08T16:42:30.240Z,12.70
2018-03-08T16:44:57.832Z,12.70
2018-03-08T16:47:25.403Z,12.60
2018-03-08T16:49:52.998Z,12.60
2018-03-08T16:52:20.565Z,12.70
2018-03-08T16:54:48.153Z,12.60
2018-03-08T16:57:15.716Z,12.60
2018-03-08T16:59:43.307Z,12.50
2018-03-08T17:02:10.896Z,12.50
2018-03-08T17:04:39.041Z,12.40
2018-03-08T17:07:06.618Z,12.40
2018-03-08T17:09:34.221Z,12.30
2018-03-08T17:12:01.844Z,12.20
2018-03-08T17:14:29.392Z,12.20
2018-03-08T17:16:56.964Z,12.10
2018-03-08T17:19:24.593Z,12.00
2018-03-08T17:21:52.180Z,11.90
2018-03-08T17:24:19.812Z,11.80
2018-03-08T17:26:47.384Z,11.80
2018-03-08T17:29:14.981Z,11.70
2018-03-08T17:31:42.546Z,11.70
2018-03-08T17:34:10.887Z,11.60
2018-03-08T17:36:38.489Z,11.60
2018-03-08T17:39:06.062Z,11.40
2018-03-08T17:41:33.654Z,11.40
2018-03-08T17:44:01.220Z,11.40
2018-03-08T17:46:28.815Z,11.30
2018-03-08T17:48:57.157Z,11.20
2018-03-08T17:51:24.755Z,11.20
2018-03-08T17:53:53.089Z,11.10
2018-03-08T17:56:20.681Z,11.00
2018-03-08T17:58:49.452Z,11.10
2018-03-08T18:01:17.634Z,11.00
2018-03-08T18:03:45.207Z,11.00
2018-03-08T18:06:12.794Z,11.00
2018-03-08T18:08:40.362Z,10.90
2018-03-08T18:11:07.950Z,10.80
2018-03-08T18:13:35.517Z,10.80
2018-03-08T18:16:03.103Z,10.80
2018-03-08T18:18:30.672Z,10.80
2018-03-08T18:20:59.029Z,10.80
2018-03-08T18:23:26.597Z,10.70
2018-03-08T18:25:54.226Z,10.70
2018-03-08T18:28:21.794Z,10.70
2018-03-08T18:30:49.389Z,10.70
2018-03-08T18:33:18.317Z,10.80
2018-03-08T18:35:45.909Z,10.70
2018-03-08T18:38:13.503Z,10.80
2018-03-08T18:40:41.069Z,10.80
2018-03-08T18:43:08.653Z,10.80
2018-03-08T18:45:36.213Z,10.80
2018-03-08T18:48:03.808Z,10.90
2018-03-08T18:50:31.382Z,10.90
2018-03-08T18:52:59.010Z,10.90
2018-03-08T18:55:26.590Z,11.00
2018-03-08T18:57:54.190Z,10.90
2018-03-08T19:00:21.753Z,10.90
2018-03-08T19:02:49.346Z,11.00
2018-03-08T19:05:16.992Z,10.90
2018-03-08T19:07:44.577Z,10.90
2018-03-08T19:10:12.150Z,10.90
2018-03-08T19:12:39.743Z,11.00
2018-03-08T19:15:07.754Z,11.10
2018-03-08T19:17:35.390Z,11.10
2018-03-08T19:20:02.956Z,11.00
2018-03-08T19:22:30.547Z,11.00
2018-03-08T19:24:58.131Z,11.10
2018-03-08T19:27:26.500Z,11.00
2018-03-08T19:29:54.834Z,11.10
2018-03-08T19:32:22.433Z,11.10
2018-03-08T19:34:50.008Z,11.00
2018-03-08T19:37:17.690Z,11.10
2018-03-08T19:39:45.263Z,11.20
2018-03-08T19:42:12.902Z,11.20
2018-03-08T19:44:40.539Z,11.10
2018-03-08T19:47:08.119Z,11.10
2018-03-08T19:49:35.914Z,11.20
2018-03-08T19:52:03.603Z,11.20
2018-03-08T19:54:31.237Z,11.20
2018-03-08T19:56:58.821Z,11.30
2018-03-08T19:59:26.406Z,11.30
2018-03-08T20:01:53.978Z,11.30
2018-03-08T20:04:22.336Z,11.20
2018-03-08T20:06:49.935Z,11.20
2018-03-08T20:09:17.548Z,11.30
2018-03-08T20:11:45.124Z,11.30
2018-03-08T20:14:13.698Z,11.30
2018-03-08T20:16:42.033Z,11.40
2018-03-08T20:19:09.626Z,11.40
2018-03-08T20:21:37.236Z,11.50
2018-03-08T20:24:04.828Z,11.50
2018-03-08T20:26:32.430Z,11.50
2018-03-08T20:29:00.031Z,11.50
2018-03-08T20:31:27.607Z,11.60
2018-03-08T20:33:56.002Z,11.50
2018-03-08T20:36:23.569Z,11.50
2018-03-08T20:38:51.933Z,11.60
2018-03-08T20:41:19.499Z,11.60
2018-03-08T20:43:47.109Z,11.60
2018-03-08T20:46:14.676Z,11.60
2018-03-08T20:48:42.260Z,11.70
2018-03-08T20:51:09.841Z,11.70
2018-03-08T20:53:37.493Z,11.60
2018-03-08T20:56:06.139Z,11.60
2018-03-08T20:58:33.777Z,11.60
2018-03-08T21:01:01.405Z,11.70
2018-03-08T21:03:28.982Z,11.70
2018-03-08T21:05:57.340Z,11.70
2018-03-08T21:08:25.522Z,11.70
2018-03-08T21:10:53.880Z,11.80
2018-03-08T21:13:21.452Z,11.70
2018-03-08T21:15:49.040Z,11.80
2018-03-08T21:18:16.604Z,11.70
2018-03-08T21:20:44.189Z,11.70
2018-03-08T21:23:11.756Z,11.80
2018-03-08T21:25:40.001Z,11.80
2018-03-08T21:28:07.621Z,11.70
2018-03-08T21:30:35.224Z,11.80
2018-03-08T21:33:03.446Z,11.80
2018-03-08T21:35:31.043Z,11.80
2018-03-08T21:37:58.620Z,11.90
2018-03-08T21:40:26.201Z,11.80
2018-03-08T21:42:54.674Z,11.60
2018-03-08T21:45:22.265Z,11.60
2018-03-08T21:47:49.837Z,11.60
2018-03-08T21:50:17.422Z,11.60
2018-03-08T21:52:44.984Z,11.60
2018-03-08T21:55:12.577Z,11.60
2018-03-08T21:57:40.141Z,11.60
2018-03-08T22:00:07.704Z,11.50
2018-03-08T22:02:36.057Z,11.40
2018-03-08T22:05:03.632Z,11.40
2018-03-08T22:07:31.218Z,11.40
2018-03-08T22:09:58.789Z,11.20
2018-03-08T22:12:26.377Z,11.20
2018-03-08T22:14:53.950Z,11.20
2018-03-08T22:17:21.541Z,11.20
2018-03-08T22:19:49.105Z,11.20
2018-03-08T22:22:16.701Z,11.10
2018-03-08T22:24:44.269Z,11.00
2018-03-08T22:27:11.862Z,10.90
2018-03-08T22:29:40.261Z,10.90
2018-03-08T22:32:07.845Z,10.80
2018-03-08T22:34:36.168Z,10.70
2018-03-08T22:37:03.760Z,10.70
2018-03-08T22:39:31.330Z,10.70
2018-03-08T22:41:58.929Z,10.60
2018-03-08T22:44:26.496Z,10.50
2018-03-08T22:46:54.085Z,10.50
2018-03-08T22:49:21.660Z,10.30
2018-03-08T22:51:49.270Z,10.30
2018-03-08T22:54:16.841Z,10.20
2018-03-08T22:56:44.429Z,10.10
2018-03-08T22:59:11.992Z,10.10
2018-03-08T23:04:54.913Z,10.00
2018-03-08T23:07:22.510Z,10.00
2018-03-08T23:09:50.080Z,10.00
2018-03-08T23:12:18.486Z,9.80
2018-03-08T23:14:46.025Z,9.80
2018-03-08T23:17:13.620Z,9.70
2018-03-08T23:19:41.181Z,9.70
2018-03-08T23:22:08.773Z,9.60
2018-03-08T23:24:36.333Z,9.60
2018-03-08T23:27:04.685Z,9.50
2018-03-08T23:29:32.245Z,9.40
2018-03-08T23:31:59.813Z,9.40
2018-03-08T23:34:27.398Z,9.50
2018-03-08T23:36:55.718Z,9.30
2018-03-08T23:39:23.297Z,9.30
2018-03-08T23:41:50.863Z,9.40
2018-03-08T23:44:18.450Z,9.40
2018-03-08T23:46:46.784Z,9.40
2018-03-08T23:49:14.373Z,9.40
2018-03-08T23:51:41.944Z,9.50
2018-03-08T23:54:09.533Z,9.50
2018-03-08T23:56:37.095Z,9.40
2018-03-08T23:59:04.676Z,9.40
